createdAt,value
2018-05-12T00:00:12.163Z,21.67
2018-05-12T00:02:39.881Z,22.33
2018-05-12T00:05:07.772Z,21.50
2018-05-12T00:07:35.411Z,21.87
2018-05-12T00:10:02.992Z,20.47
2018-05-12T00:12:30.784Z,22.60
2018-05-12T00:14:58.589Z,17.47
2018-05-12T00:17:26.355Z,22.50
2018-05-12T00:19:54.010Z,20.07
2018-05-12T00:22:21.620Z,19.83
2018-05-12T00:24:49.169Z,18.50
2018-05-12T00:27:17.080Z,22.07
2018-05-12T00:29:44.837Z,20.90
2018-05-12T00:32:12.568Z,18.60
2018-05-12T00:34:40.313Z,17.57
2018-05-12T00:37:07.984Z,19.83
2018-05-12T00:39:35.597Z,21.03
2018-05-12T00:42:03.193Z,20.70
2018-05-12T00:44:30.833Z,22.93
2018-05-12T00:46:58.421Z,17.93
2018-05-12T00:49:26.296Z,22.13
2018-05-12T00:51:54.041Z,17.93
2018-05-12T00:54:22.024Z,19.83
2018-05-12T00:56:49.641Z,17.00
2018-05-12T00:59:17.229Z,20.57
2018-05-12T01:01:44.882Z,21.20
2018-05-12T01:04:12.489Z,20.47
2018-05-12T01:06:40.809Z,21.27
2018-05-12T01:09:08.693Z,22.00
2018-05-12T01:11:36.297Z,21.33
2018-05-12T01:14:04.632Z,24.00
2018-05-12T01:16:32.218Z,20.87
2018-05-12T01:19:00.937Z,24.73
2018-05-12T01:21:28.526Z,24.83
2018-05-12T01:23:56.240Z,28.77
2018-05-12T01:26:24.766Z,25.60
2018-05-12T01:28:52.440Z,27.00
2018-05-12T01:31:20.130Z,31.97
2018-05-12T01:33:48.604Z,26.90
2018-05-12T01:36:16.326Z,25.77
2018-05-12T01:38:44.088Z,27.70
2018-05-12T01:41:11.846Z,23.03
2018-05-12T01:43:39.480Z,25.77
2018-05-12T01:46:08.198Z,23.47
2018-05-12T01:48:35.996Z,23.43
2018-05-12T01:51:03.666Z,24.13
2018-05-12T01:53:32.133Z,31.80
2018-05-12T01:56:00.109Z,34.10
2018-05-12T01:58:27.957Z,25.03
2018-05-12T02:00:55.532Z,24.07
2018-05-12T02:03:23.340Z,22.47
2018-05-12T02:05:50.892Z,22.73
2018-05-12T02:08:18.481Z,23.80
2018-05-12T02:10:46.080Z,28.17
2018-05-12T02:13:13.795Z,27.80
2018-05-12T02:15:41.462Z,26.27
2018-05-12T02:18:09.156Z,35.13
2018-05-12T02:20:36.860Z,31.30
2018-05-12T02:23:04.744Z,31.80
2018-05-12T02:25:32.452Z,30.93
2018-05-12T02:28:00.201Z,28.93
2018-05-12T02:30:28.143Z,25.20
2018-05-12T02:32:55.817Z,29.83
2018-05-12T02:35:23.629Z,32.53
2018-05-12T02:37:52.257Z,27.80
2018-05-12T02:40:20.050Z,34.23
2018-05-12T02:42:47.639Z,35.50
2018-05-12T02:45:16.177Z,37.43
2018-05-12T02:47:43.779Z,32.97
2018-05-12T02:50:11.504Z,32.47
2018-05-12T02:52:39.099Z,28.03
2018-05-12T02:55:07.494Z,29.73
2018-05-12T02:57:35.509Z,29.87
2018-05-12T03:00:03.265Z,31.00
2018-05-12T03:02:31.275Z,29.87
2018-05-12T03:04:59.604Z,28.20
2018-05-12T03:07:27.348Z,28.17
2018-05-12T03:09:55.220Z,26.03
2018-05-12T03:12:22.792Z,62.93
2018-05-12T03:14:50.462Z,51.67
2018-05-12T03:17:18.174Z,43.90
2018-05-12T03:19:46.860Z,24.27
2018-05-12T03:22:15.302Z,26.43
2018-05-12T03:24:43.837Z,20.80
2018-05-12T03:27:11.418Z,21.80
2018-05-12T03:29:38.997Z,22.20
2018-05-12T03:32:06.894Z,25.80
2018-05-12T03:34:35.545Z,24.13
2018-05-12T03:37:03.432Z,26.60
2018-05-12T03:39:31.037Z,31.87
2018-05-12T03:41:58.945Z,39.13
2018-05-12T03:44:26.540Z,29.40
2018-05-12T03:46:55.040Z,26.63
2018-05-12T03:49:22.712Z,29.97
2018-05-12T03:51:50.277Z,29.10
2018-05-12T03:54:18.041Z,30.40
2018-05-12T03:56:45.762Z,28.90
2018-05-12T03:59:14.493Z,29.40
2018-05-12T04:01:42.279Z,32.13
2018-05-12T04:04:21.804Z,26.93
2018-05-12T04:07:01.248Z,35.37
2018-05-12T04:09:40.677Z,37.80
2018-05-12T04:12:20.179Z,40.03
2018-05-12T04:14:47.741Z,41.80
2018-05-12T04:17:15.421Z,40.97
2018-05-12T04:19:43.369Z,36.73
2018-05-12T04:22:11.053Z,37.40
2018-05-12T04:24:38.625Z,38.03
2018-05-12T04:27:06.320Z,36.90
2018-05-12T04:29:34.132Z,32.97
2018-05-12T04:32:01.865Z,37.23
2018-05-12T04:34:30.493Z,28.43
2018-05-12T04:36:58.159Z,26.80
2018-05-12T04:39:25.831Z,30.23
2018-05-12T04:41:53.478Z,32.80
2018-05-12T04:44:21.224Z,24.17
2018-05-12T04:46:49.177Z,21.60
2018-05-12T04:49:16.781Z,29.67
2018-05-12T04:51:44.559Z,33.23
2018-05-12T04:54:12.242Z,33.63
2018-05-12T04:56:40.961Z,27.37
2018-05-12T04:59:08.784Z,28.27
2018-05-12T05:01:36.598Z,28.17
2018-05-12T05:04:04.189Z,27.83
2018-05-12T05:06:31.933Z,17.93
2018-05-12T05:08:59.580Z,22.07
2018-05-12T05:11:27.497Z,24.80
2018-05-12T05:13:55.961Z,31.97
2018-05-12T05:16:23.690Z,32.43
2018-05-12T05:18:51.431Z,29.90
2018-05-12T05:21:19.153Z,23.53
2018-05-12T05:23:47.431Z,24.50
2018-05-12T05:26:15.245Z,23.47
2018-05-12T05:28:42.806Z,21.93
2018-05-12T05:31:10.470Z,21.20
2018-05-12T05:33:38.141Z,19.63
2018-05-12T05:36:06.637Z,18.97
2018-05-12T05:38:34.261Z,17.07
2018-05-12T05:41:01.995Z,15.53
2018-05-12T05:43:29.700Z,17.50
2018-05-12T05:45:57.457Z,17.47
2018-05-12T05:48:25.184Z,19.93
2018-05-12T05:50:52.888Z,17.23
2018-05-12T05:53:20.449Z,16.43
2018-05-12T05:55:48.343Z,17.13
2018-05-12T05:58:16.118Z,16.20
2018-05-12T06:00:43.810Z,16.77
2018-05-12T06:03:12.271Z,15.40
2018-05-12T06:05:39.849Z,16.13
2018-05-12T06:08:08.192Z,15.60
2018-05-12T06:10:35.817Z,16.50
2018-05-12T06:13:03.385Z,19.27
2018-05-12T06:15:31.039Z,19.80
2018-05-12T06:17:58.662Z,15.23
2018-05-12T06:20:27.192Z,16.47
2018-05-12T06:22:54.843Z,17.83
2018-05-12T06:25:22.556Z,17.63
2018-05-12T06:27:50.167Z,15.60
2018-05-12T06:30:18.052Z,16.97
2018-05-12T06:32:45.703Z,16.43
2018-05-12T06:35:14.090Z,17.40
2018-05-12T06:37:41.761Z,13.50
2018-05-12T06:40:10.273Z,14.13
2018-05-12T06:42:38.618Z,15.03
2018-05-12T06:45:06.315Z,13.47
2018-05-12T06:47:34.815Z,13.57
2018-05-12T06:50:02.768Z,16.03
2018-05-12T06:52:31.112Z,17.43
2018-05-12T06:54:58.713Z,16.03
2018-05-12T06:57:27.133Z,15.00
2018-05-12T06:59:54.722Z,15.53
2018-05-12T07:02:22.328Z,11.90
2018-05-12T07:04:50.192Z,22.87
2018-05-12T07:07:17.770Z,17.03
2018-05-12T07:09:45.552Z,19.93
2018-05-12T07:12:13.134Z,16.83
2018-05-12T07:14:40.759Z,13.73
2018-05-12T07:17:08.501Z,11.47
2018-05-12T07:19:36.233Z,11.37
2018-05-12T07:22:04.556Z,12.43
2018-05-12T07:24:32.282Z,10.87
2018-05-12T07:27:00.757Z,13.00
2018-05-12T07:29:29.173Z,17.53
2018-05-12T07:31:56.786Z,13.20
2018-05-12T07:34:25.422Z,13.50
2018-05-12T07:36:53.174Z,11.83
2018-05-12T07:39:20.779Z,10.37
2018-05-12T07:41:48.343Z,8.67
2018-05-12T07:44:15.928Z,13.63
2018-05-12T07:46:44.418Z,11.70
2018-05-12T07:49:12.283Z,10.07
2018-05-12T07:51:39.872Z,10.20
2018-05-12T07:54:07.488Z,14.53
2018-05-12T07:56:35.871Z,10.80
2018-05-12T07:59:04.192Z,11.50
2018-05-12T08:01:31.818Z,9.03
2018-05-12T08:03:59.398Z,10.97
2018-05-12T08:06:27.162Z,10.47
2018-05-12T08:08:54.871Z,13.53
2018-05-12T08:11:22.673Z,9.30
2018-05-12T08:13:50.547Z,11.30
2018-05-12T08:16:18.144Z,11.57
2018-05-12T08:18:46.837Z,9.57
2018-05-12T08:21:14.424Z,12.47
2018-05-12T08:23:42.788Z,12.20
2018-05-12T08:26:10.567Z,8.63
2018-05-12T08:28:38.252Z,8.57
2018-05-12T08:31:06.019Z,10.53
2018-05-12T08:33:33.778Z,11.00
2018-05-12T08:36:01.391Z,8.17
2018-05-12T08:38:29.072Z,9.37
2018-05-12T08:40:57.438Z,11.17
2018-05-12T08:43:25.383Z,6.93
2018-05-12T08:45:53.140Z,9.87
2018-05-12T08:48:20.906Z,9.20
2018-05-12T08:50:48.639Z,12.67
2018-05-12T08:53:16.234Z,12.07
2018-05-12T08:55:44.148Z,12.03
2018-05-12T08:58:11.746Z,10.57
2018-05-12T09:00:39.605Z,10.98
2018-05-12T09:03:07.168Z,11.70
2018-05-12T09:05:34.895Z,14.20
2018-05-12T09:08:02.724Z,13.67
2018-05-12T09:10:32.072Z,11.33
2018-05-12T09:12:59.858Z,14.80
2018-05-12T09:15:27.468Z,14.33
2018-05-12T09:17:56.121Z,12.97
2018-05-12T09:20:23.816Z,11.70
2018-05-12T09:22:52.334Z,14.20
2018-05-12T09:25:20.286Z,10.50
2018-05-12T09:27:48.097Z,12.43
2018-05-12T09:30:16.000Z,10.53
2018-05-12T09:32:44.425Z,12.00
2018-05-12T09:35:12.386Z,14.10
2018-05-12T09:37:39.996Z,9.83
2018-05-12T09:40:07.696Z,10.93
2018-05-12T09:42:35.329Z,13.50
2018-05-12T09:45:03.348Z,9.30
2018-05-12T09:47:31.208Z,10.23
2018-05-12T09:49:58.890Z,8.33
2018-05-12T09:52:26.783Z,13.50
2018-05-12T09:54:54.487Z,10.30
2018-05-12T09:57:22.370Z,7.87
2018-05-12T09:59:49.977Z,19.20
2018-05-12T10:02:18.301Z,10.65
2018-05-12T10:04:46.066Z,11.00
2018-05-12T10:07:13.850Z,14.75
2018-05-12T10:09:41.718Z,10.82
2018-05-12T10:12:09.436Z,12.50
2018-05-12T10:14:37.298Z,12.50
2018-05-12T10:17:05.332Z,10.40
2018-05-12T10:19:33.047Z,11.48
2018-05-12T10:22:01.081Z,11.35
2018-05-12T10:24:29.493Z,13.10
2018-05-12T10:26:57.357Z,15.38
2018-05-12T10:29:25.264Z,13.23
2018-05-12T10:31:53.795Z,21.37
2018-05-12T10:34:21.358Z,14.70
2018-05-12T10:36:49.225Z,15.95
2018-05-12T10:39:16.805Z,14.43
2018-05-12T10:41:44.367Z,10.88
2018-05-12T10:44:12.368Z,14.55
2018-05-12T10:46:39.943Z,11.20
2018-05-12T10:49:08.401Z,11.98
2018-05-12T10:51:36.151Z,12.18
2018-05-12T10:54:03.724Z,11.35
2018-05-12T10:56:31.415Z,19.40
2018-05-12T10:58:59.971Z,12.23
2018-05-12T11:01:27.710Z,16.23
2018-05-12T11:03:55.365Z,9.60
2018-05-12T11:06:23.306Z,13.10
2018-05-12T11:08:50.893Z,10.75
2018-05-12T11:11:18.650Z,10.23
2018-05-12T11:13:46.565Z,12.73
2018-05-12T11:16:14.234Z,9.55
2018-05-12T11:18:41.817Z,10.35
2018-05-12T11:21:09.416Z,6.40
2018-05-12T11:23:37.243Z,7.25
2018-05-12T11:26:04.809Z,9.25
2018-05-12T11:28:32.403Z,10.73
2018-05-12T11:31:00.075Z,7.93
2018-05-12T11:33:27.749Z,8.23
2018-05-12T11:35:55.707Z,6.07
2018-05-12T11:38:24.353Z,8.05
2018-05-12T11:40:52.224Z,12.63
2018-05-12T11:43:19.978Z,8.90
2018-05-12T11:45:47.538Z,5.80
2018-05-12T11:48:15.104Z,6.05
2018-05-12T11:50:42.883Z,3.50
2018-05-12T11:53:10.677Z,9.45
2018-05-12T11:55:39.045Z,5.93
2018-05-12T11:58:06.860Z,5.15
2018-05-12T12:00:34.662Z,6.72
2018-05-12T12:03:02.239Z,5.75
2018-05-12T12:05:30.165Z,7.05
2018-05-12T12:07:57.889Z,9.40
2018-05-12T12:10:26.465Z,6.55
2018-05-12T12:12:55.204Z,7.72
2018-05-12T12:15:22.873Z,8.90
2018-05-12T12:17:50.496Z,5.45
2018-05-12T12:20:18.230Z,5.60
2018-05-12T12:22:46.577Z,6.75
2018-05-12T12:25:14.218Z,7.60
2018-05-12T12:27:42.135Z,6.25
2018-05-12T12:30:10.459Z,8.18
2018-05-12T12:32:38.101Z,7.55
2018-05-12T12:35:05.832Z,10.95
2018-05-12T12:37:34.490Z,10.45
2018-05-12T12:40:02.185Z,5.62
2018-05-12T12:42:30.693Z,8.85
2018-05-12T12:44:58.388Z,5.37
2018-05-12T12:47:27.043Z,9.25
2018-05-12T12:49:54.915Z,9.77
2018-05-12T12:52:22.896Z,9.18
2018-05-12T12:54:50.607Z,7.32
2018-05-12T12:57:19.662Z,9.13
2018-05-12T12:59:47.309Z,9.85
2018-05-12T13:02:15.031Z,7.35
2018-05-12T13:04:43.882Z,9.23
2018-05-12T13:07:12.238Z,7.82
2018-05-12T13:09:39.980Z,7.55
2018-05-12T13:12:07.602Z,4.72
2018-05-12T13:14:35.384Z,10.05
2018-05-12T13:17:03.892Z,5.90
2018-05-12T13:19:31.609Z,4.53
2018-05-12T13:21:59.493Z,10.50
2018-05-12T13:24:27.840Z,10.82
2018-05-12T13:26:55.661Z,8.70
2018-05-12T13:29:23.223Z,7.37
2018-05-12T13:31:50.986Z,4.97
2018-05-12T13:34:18.795Z,5.62
2018-05-12T13:36:46.358Z,11.00
2018-05-12T13:39:14.208Z,9.55
2018-05-12T13:41:41.990Z,7.20
2018-05-12T13:44:09.683Z,9.93
2018-05-12T13:46:37.519Z,10.00
2018-05-12T13:49:05.094Z,8.48
2018-05-12T13:51:33.822Z,11.77
2018-05-12T13:54:01.384Z,8.68
2018-05-12T13:56:29.198Z,9.52
2018-05-12T13:58:57.015Z,6.28
2018-05-12T14:01:24.654Z,5.97
2018-05-12T14:03:52.337Z,8.10
2018-05-12T14:06:20.071Z,6.72
2018-05-12T14:08:47.749Z,10.02
2018-05-12T14:11:15.570Z,8.32
2018-05-12T14:13:43.923Z,15.40
2018-05-12T14:16:12.581Z,5.12
2018-05-12T14:18:40.437Z,9.57
2018-05-12T14:21:08.297Z,8.75
2018-05-12T14:23:36.064Z,8.10
2018-05-12T14:26:03.865Z,8.93
2018-05-12T14:28:31.429Z,4.80
2018-05-12T14:30:59.058Z,7.07
2018-05-12T14:33:26.829Z,4.25
2018-05-12T14:35:54.666Z,5.18
2018-05-12T14:38:22.250Z,6.80
2018-05-12T14:40:50.117Z,8.68
2018-05-12T14:43:17.902Z,10.05
2018-05-12T14:45:45.719Z,17.58
2018-05-12T14:48:13.367Z,8.60
2018-05-12T14:50:41.697Z,6.25
2018-05-12T14:53:09.554Z,8.73
2018-05-12T14:55:37.601Z,6.72
2018-05-12T14:58:05.339Z,7.70
2018-05-12T15:00:33.696Z,8.80
2018-05-12T15:03:01.313Z,6.65
2018-05-12T15:05:28.985Z,7.30
2018-05-12T15:07:56.561Z,12.65
2018-05-12T15:10:24.184Z,9.38
2018-05-12T15:12:51.979Z,7.47
2018-05-12T15:15:19.756Z,8.57
2018-05-12T15:17:47.614Z,13.77
2018-05-12T15:20:15.309Z,8.55
2018-05-12T15:22:43.783Z,13.68
2018-05-12T15:25:11.644Z,7.53
2018-05-12T15:27:39.371Z,7.45
2018-05-12T15:30:07.022Z,7.97
2018-05-12T15:32:34.966Z,7.40
2018-05-12T15:35:02.540Z,11.57
2018-05-12T15:37:30.577Z,6.90
2018-05-12T15:39:59.126Z,7.55
2018-05-12T15:42:27.850Z,9.05
2018-05-12T15:44:55.695Z,11.82
2018-05-12T15:47:23.450Z,10.45
2018-05-12T15:49:51.254Z,8.60
2018-05-12T15:52:18.784Z,11.30
2018-05-12T15:54:46.405Z,9.52
2018-05-12T15:57:14.010Z,4.25
2018-05-12T15:59:42.505Z,6.55
2018-05-12T16:02:10.957Z,8.70
2018-05-12T16:04:38.760Z,8.93
2018-05-12T16:07:07.502Z,5.97
2018-05-12T16:09:35.207Z,11.63
2018-05-12T16:12:04.058Z,22.00
2018-05-12T16:14:31.769Z,9.35
2018-05-12T16:16:59.372Z,7.43
2018-05-12T16:19:27.492Z,17.12
2018-05-12T16:21:55.344Z,90.75
2018-05-12T16:24:23.906Z,18.55
2018-05-12T16:26:51.489Z,15.35
2018-05-12T16:29:20.027Z,11.00
2018-05-12T16:31:47.997Z,8.27
2018-05-12T16:34:15.581Z,19.27
2018-05-12T16:36:43.316Z,43.80
2018-05-12T16:39:11.210Z,17.70
2018-05-12T16:41:39.145Z,9.57
2018-05-12T16:44:06.962Z,11.47
2018-05-12T16:46:35.789Z,20.93
2018-05-12T16:49:03.447Z,19.43
2018-05-12T16:51:31.419Z,10.67
2018-05-12T16:53:59.089Z,11.90
2018-05-12T16:56:26.691Z,21.77
2018-05-12T16:58:55.046Z,8.47
2018-05-12T17:01:22.812Z,8.03
2018-05-12T17:03:50.376Z,19.20
2018-05-12T17:06:18.206Z,13.37
2018-05-12T17:08:45.988Z,14.67
2018-05-12T17:11:14.354Z,11.23
2018-05-12T17:13:41.943Z,16.23
2018-05-12T17:16:10.390Z,12.73
2018-05-12T17:18:37.973Z,12.63
2018-05-12T17:21:05.904Z,76.23
2018-05-12T17:23:33.629Z,43.93
2018-05-12T17:26:01.978Z,13.07
2018-05-12T17:28:29.564Z,24.07
2018-05-12T17:30:58.090Z,16.40
2018-05-12T17:33:25.762Z,15.33
2018-05-12T17:35:53.328Z,12.67
2018-05-12T17:38:20.950Z,13.50
2018-05-12T17:40:48.530Z,14.93
2018-05-12T17:43:16.235Z,23.03
2018-05-12T17:45:44.044Z,28.57
2018-05-12T17:48:11.635Z,85.83
2018-05-12T17:50:39.463Z,85.27
2018-05-12T17:53:07.064Z,42.77
2018-05-12T17:55:34.652Z,25.77
2018-05-12T17:58:03.269Z,29.43
2018-05-12T18:00:30.996Z,30.23
2018-05-12T18:02:59.430Z,32.57
2018-05-12T18:05:26.993Z,31.87
2018-05-12T18:07:54.595Z,39.87
2018-05-12T18:10:23.293Z,38.77
2018-05-12T18:12:51.789Z,36.60
2018-05-12T18:15:19.421Z,43.97
2018-05-12T18:17:47.769Z,53.77
2018-05-12T18:20:15.539Z,49.00
2018-05-12T18:22:44.291Z,69.03
2018-05-12T18:25:12.039Z,67.53
2018-05-12T18:27:39.610Z,87.03
2018-05-12T18:30:07.618Z,76.17
2018-05-12T18:32:35.193Z,53.67
2018-05-12T18:35:03.545Z,29.90
2018-05-12T18:37:31.498Z,26.50
2018-05-12T18:39:59.113Z,36.13
2018-05-12T18:42:27.537Z,26.43
2018-05-12T18:44:55.380Z,33.17
2018-05-12T18:47:23.070Z,24.90
2018-05-12T18:49:50.723Z,29.60
2018-05-12T18:52:18.335Z,30.53
2018-05-12T18:54:47.098Z,29.50
2018-05-12T18:57:14.711Z,39.60
2018-05-12T18:59:42.426Z,36.97
2018-05-12T19:02:10.184Z,39.03
2018-05-12T19:04:38.743Z,35.60
2018-05-12T19:07:06.368Z,33.47
2018-05-12T19:09:33.956Z,34.70
2018-05-12T19:12:01.533Z,56.00
2018-05-12T19:14:29.593Z,51.20
2018-05-12T19:16:57.244Z,41.97
2018-05-12T19:19:24.820Z,29.87
2018-05-12T19:21:52.436Z,32.67
2018-05-12T19:24:20.971Z,24.87
2018-05-12T19:26:48.748Z,25.70
2018-05-12T19:29:16.685Z,38.43
2018-05-12T19:31:44.264Z,46.30
2018-05-12T19:34:11.846Z,49.40
2018-05-12T19:36:40.213Z,27.57
2018-05-12T19:39:08.045Z,38.03
2018-05-12T19:41:35.852Z,41.40
2018-05-12T19:44:04.455Z,31.50
2018-05-12T19:46:32.934Z,34.53
2018-05-12T19:49:01.606Z,40.67
2018-05-12T19:51:30.185Z,41.50
2018-05-12T19:53:58.542Z,37.87
2018-05-12T19:56:26.435Z,27.30
2018-05-12T19:58:55.479Z,30.57
2018-05-12T20:01:23.701Z,28.03
2018-05-12T20:03:52.310Z,31.90
2018-05-12T20:06:20.005Z,38.70
2018-05-12T20:08:47.579Z,46.47
2018-05-12T20:11:15.297Z,37.87
2018-05-12T20:13:43.185Z,38.63
2018-05-12T20:16:11.104Z,48.27
2018-05-12T20:18:39.840Z,44.10
2018-05-12T20:21:07.827Z,31.33
2018-05-12T20:23:35.721Z,33.27
2018-05-12T20:26:03.777Z,24.67
2018-05-12T20:28:32.737Z,23.40
2018-05-12T20:31:00.941Z,27.17
2018-05-12T20:33:29.088Z,38.37
2018-05-12T20:35:57.121Z,34.07
2018-05-12T20:38:25.048Z,38.13
2018-05-12T20:40:53.723Z,31.57
2018-05-12T20:43:21.791Z,24.33
2018-05-12T20:45:49.360Z,24.47
2018-05-12T20:48:16.932Z,25.70
2018-05-12T20:50:44.998Z,22.73
2018-05-12T20:53:12.687Z,21.33
2018-05-12T20:55:41.378Z,25.63
2018-05-12T20:58:09.489Z,29.47
2018-05-12T21:00:37.208Z,27.23
2018-05-12T21:03:05.869Z,27.20
2018-05-12T21:05:33.494Z,24.27
2018-05-12T21:08:01.335Z,23.47
2018-05-12T21:10:29.253Z,24.33
2018-05-12T21:12:57.092Z,17.97
2018-05-12T21:15:25.370Z,15.87
2018-05-12T21:17:52.969Z,22.10
2018-05-12T21:20:21.406Z,19.50
2018-05-12T21:22:49.371Z,18.63
2018-05-12T21:25:17.288Z,16.83
2018-05-12T21:27:46.452Z,18.23
2018-05-12T21:30:14.424Z,19.10
2018-05-12T21:32:42.486Z,18.93
2018-05-12T21:35:10.668Z,20.20
2018-05-12T21:37:38.267Z,27.13
2018-05-12T21:40:06.630Z,66.07
2018-05-12T21:42:35.063Z,61.07
2018-05-12T21:45:03.982Z,49.70
2018-05-12T21:47:31.924Z,41.37
2018-05-12T21:50:00.067Z,32.27
2018-05-12T21:52:28.147Z,32.37
2018-05-12T21:54:55.755Z,31.97
2018-05-12T21:57:24.435Z,25.63
2018-05-12T21:59:52.417Z,21.00
2018-05-12T22:02:20.232Z,20.67
2018-05-12T22:04:48.171Z,21.30
2018-05-12T22:07:16.792Z,23.97
2018-05-12T22:09:44.560Z,31.67
2018-05-12T22:12:12.161Z,26.80
2018-05-12T22:14:39.998Z,22.77
2018-05-12T22:17:08.604Z,22.37
2018-05-12T22:19:36.931Z,24.33
2018-05-12T22:22:04.530Z,22.50
2018-05-12T22:24:32.161Z,21.90
2018-05-12T22:27:00.114Z,28.27
2018-05-12T22:29:28.154Z,21.90
2018-05-12T22:31:55.904Z,17.20
2018-05-12T22:34:23.625Z,23.40
2018-05-12T22:36:52.328Z,22.50
2018-05-12T22:39:20.007Z,21.63
2018-05-12T22:41:47.606Z,17.97
2018-05-12T22:44:15.414Z,25.67
2018-05-12T22:46:43.368Z,26.23
2018-05-12T22:49:11.338Z,18.53
2018-05-12T22:51:38.989Z,25.67
2018-05-12T22:54:06.557Z,18.93
2018-05-12T22:56:34.184Z,25.07
2018-05-12T22:59:02.017Z,25.00
2018-05-12T23:01:29.678Z,32.60
2018-05-12T23:03:57.416Z,31.30
2018-05-12T23:06:25.182Z,22.47
2018-05-12T23:08:53.137Z,23.07
2018-05-12T23:11:20.877Z,22.93
2018-05-12T23:13:48.866Z,27.50
2018-05-12T23:16:16.741Z,22.63
2018-05-12T23:18:44.531Z,21.07
2018-05-12T23:21:12.101Z,22.80
2018-05-12T23:23:40.662Z,17.50
2018-05-12T23:26:08.435Z,25.20
2018-05-12T23:28:36.004Z,13.83
2018-05-12T23:31:04.443Z,11.30
2018-05-12T23:33:32.399Z,11.57
2018-05-12T23:36:00.276Z,14.53
2018-05-12T23:38:28.033Z,11.23
2018-05-12T23:40:55.667Z,17.33
2018-05-12T23:43:24.197Z,11.73
2018-05-12T23:45:51.815Z,11.00
2018-05-12T23:48:19.577Z,10.17
2018-05-12T23:50:47.264Z,12.23
2018-05-12T23:53:15.052Z,14.20
2018-05-12T23:55:42.777Z,9.53
2018-05-12T23:58:10.412Z,13.50
